• Join FlightAware (Why Join?)
  • Login
  • US Flag 
08:37AM EST


 

Airport Tracker/Info


-or-


 

Live Flight TrackerFlight Track Log ✈ PDT4314 ✈ 03-Sep-2013 ✈ KBGM - KPHL

Flight Track Log - Related Links

Times and Time Zones

All times are in EDT time to prevent confusion due to time zone crossing. See the PDT4314 flight status page for this flight to view local times or setup timezone preferences in your user account.

Time Position Orientation Groundspeed Altitude Reporting Facility
EDT Latitude Longitude Course Direction KTS MPH feet Rate Location/Type
06:03PM 42.0428 -75.9255 173° South  Level Estimated
06:04PM 41.9876 -75.9075 180° South  Level Estimated
06:05PM 41.9309 -75.9137 185° South  Level FlightAware Approximate
06:06PM 41.8743 -75.9198 185° South  Level FlightAware Approximate
06:07PM 41.8176 -75.9260 185° South  Level FlightAware Approximate
06:08PM 41.7627 -75.9061 154° Southeast  Level Estimated
06:09PM 41.7079 -75.8862 160° South  Level Estimated
06:10PM 41.6521 -75.8716 169° South  Level FlightAware Approximate
06:11PM 41.5972 -75.8516 159° South  Level Estimated
06:12PM 41.5444 -75.8235 158° South  Level FlightAware Approximate
06:13PM 41.4895 -75.8039 153° Southeast  Level Estimated
06:14PM 41.4346 -75.7843 161° South  Level Estimated
06:15PM 41.3828 -75.7531 156° South  Level FlightAware Approximate
06:16PM 41.3310 -75.7219 156° South  Level FlightAware Approximate
06:17PM 41.2791 -75.6908 156° South  Level FlightAware Approximate
06:18PM 41.2239 -75.6728 162° South  Level Estimated
06:19PM 41.1704 -75.6473 160° South  Level FlightAware Approximate
06:20PM 41.1169 -75.6220 160° South  Level FlightAware Approximate
06:21PM 41.0633 -75.5966 160° South  Level FlightAware Approximate
06:22PM 41.0098 -75.5713 160° South  Level FlightAware Approximate
06:23PM 40.9543 -75.5549 163° South  Level Estimated
06:24PM 40.9004 -75.5310 161° South  Level FlightAware Approximate
06:25PM 40.8465 -75.5072 162° South  Level FlightAware Approximate
06:26PM 40.7926 -75.4834 162° South  Level FlightAware Approximate
06:27PM 40.7386 -75.4597 162° South  Level FlightAware Approximate
06:27PM 40.6167 -75.5667 207° Southwest 271 312 6,400  Level Philadelphia TRACON
06:27PM 40.5500 -75.5667 180° South 268 308 5,800 -840 Descending Philadelphia TRACON
06:28PM 40.6828 -75.4454 190° South  Level Estimated
06:28PM 40.5000 -75.5333 153° Southeast 258 297 5,000  Level Philadelphia TRACON
06:29PM 40.6274 -75.4620 193° South  Level FlightAware Approximate
06:29PM 40.4500 -75.4667 135° Southeast 244 281 5,000  Level Philadelphia TRACON
06:30PM 40.5577 -75.4828 193° South  Level FlightAware Approximate
06:30PM 40.4000 -75.4167 143° Southeast 249 287 5,000  Level Philadelphia TRACON
06:31PM 40.4887 -75.4582 187° South  Level Estimated
06:31PM 40.3500 -75.3500 135° Southeast 249 287 5,000  Level Philadelphia TRACON
06:32PM 40.4249 -75.5003 207° Southwest  Level FlightAware Approximate
06:32PM 40.3000 -75.2833 135° Southeast 249 287 5,000  Level Philadelphia TRACON
06:33PM 40.2333 -75.2167 143° Southeast 253 291 5,000  Level Philadelphia TRACON
06:34PM 40.2000 -75.1667 131° Southeast 251 289 5,000  Level Philadelphia TRACON
06:35PM 40.1333 -75.1000 143° Southeast 251 289 5,000 -240 Level Philadelphia TRACON
06:36PM 40.0833 -75.0333 134° Southeast 257 296 4,500 -540 Descending Philadelphia TRACON
06:37PM 40.0167 -75.0167 169° South 248 285 4,000 -900 Descending Philadelphia TRACON
06:38PM 39.9667 -75.0167 180° South 190 219 2,700 -1,020 Descending Philadelphia TRACON
06:39PM 39.9167 -75.0667 217° Southwest 183 211 1,900 -480 Descending Philadelphia TRACON
06:40PM 39.9000 -75.1167 247° West 162 186 1,800 -420 Descending Philadelphia TRACON
06:41PM 39.8833 -75.1667 247° West 135 155 1,100 -720 Descending Philadelphia TRACON
06:42PM 39.8833 -75.2000 270° West 82 94 500 -660 Descending Philadelphia TRACON